Melville, Louisiana
Current Conditions -  °F | °C
As of 12:15 PM on Monday 26 Jan 2015 (Local Time) from KHZR Reporting Station
Clear Clear  
Wind Chill: 55°   Ceiling: Unl
Heat Index: 55°   Visibility: 10mi
Dew Point: 36°   Wind: 12mph
Humidity: 49%   Direction: 320°NW
Pressure: 30.15"   Gusts: NA
Location:  30.69°N, 91.74°W
Report Text: KHZR 261815Z AUTO 32010KT 10SM CLR 13/02 A3015 RMK AO2 T01280024
Loading
Personal Weather Stations






























Interactive Weather Map New forecast layout! Learn more

10-Day Weather Forecast

Advertisements
Track Severe Weather on mobile